Time;durP1;ratioP1;P1;durP2;ratioP2;P2;SDS_P1;SDS_P2;PMS_P1;PMS_P2;Temp;Humidity;BMP_temperature;BMP_pressure;BME280_temperature;BME280_humidity;BME280_pressure;Samples;Min_cycle;Max_cycle;Signal;HPM_P1;HPM_P2
2023/12/02 00:00:38;;;;;;;16.52;13.05;;;1.50;99.90;;;;;;5083939;28;20574;-75
2023/12/02 00:03:24;;;;;;;21.58;13.93;;;1.50;99.90;;;;;;5088346;28;20199;-74
2023/12/02 00:06:11;;;;;;;19.98;15.55;;;1.50;99.90;;;;;;5083850;28;20196;-74
2023/12/02 00:08:56;;;;;;;17.52;13.73;;;1.50;99.90;;;;;;5079727;28;20680;-74
2023/12/02 00:11:41;;;;;;;20.50;15.45;;;1.50;99.90;;;;;;5079062;28;20208;-75
2023/12/02 00:14:27;;;;;;;22.15;16.13;;;1.50;99.90;;;;;;5080607;28;20218;-72
2023/12/02 00:17:14;;;;;;;16.13;12.13;;;1.50;99.90;;;;;;5086921;28;20330;-75
2023/12/02 00:19:59;;;;;;;17.58;14.70;;;1.50;99.90;;;;;;5084950;28;20274;-75
2023/12/02 00:22:45;;;;;;;19.52;16.25;;;1.50;99.90;;;;;;5081023;28;20198;-75
2023/12/02 00:25:31;;;;;;;21.02;14.55;;;1.50;99.90;;;;;;5082358;28;20245;-75
2023/12/02 00:28:17;;;;;;;19.48;14.57;;;1.50;99.90;;;;;;5087065;28;20685;-75
2023/12/02 00:31:02;;;;;;;17.40;13.75;;;1.60;99.90;;;;;;5082924;28;20215;-74
2023/12/02 00:33:49;;;;;;;17.67;12.77;;;1.60;99.90;;;;;;5082959;28;21553;-75
2023/12/02 00:36:36;;;;;;;16.70;13.70;;;1.60;99.90;;;;;;5072780;28;20765;-75
2023/12/02 00:39:22;;;;;;;18.98;13.25;;;1.60;99.90;;;;;;5089221;28;20202;-75
2023/12/02 00:42:08;;;;;;;16.52;11.85;;;1.60;99.90;;;;;;5083918;28;20277;-76
2023/12/02 00:44:53;;;;;;;15.77;11.43;;;1.60;99.90;;;;;;5085435;28;20247;-75
2023/12/02 00:47:39;;;;;;;15.60;13.10;;;1.60;99.90;;;;;;5083120;28;20281;-74
2023/12/02 00:50:26;;;;;;;17.17;11.93;;;1.60;99.90;;;;;;5074699;28;20230;-74
2023/12/02 00:53:12;;;;;;;15.88;13.48;;;1.50;99.90;;;;;;5089450;28;20219;-74
2023/12/02 00:55:58;;;;;;;18.52;15.35;;;1.50;99.90;;;;;;5084435;28;20229;-75
2023/12/02 00:58:43;;;;;;;16.13;13.00;;;1.40;99.90;;;;;;5087079;28;20204;-75
2023/12/02 01:01:29;;;;;;;16.15;13.60;;;1.40;99.90;;;;;;5079580;28;20203;-75
2023/12/02 01:04:14;;;;;;;19.02;12.60;;;1.40;99.90;;;;;;5071615;28;20755;-75
2023/12/02 01:07:01;;;;;;;14.50;11.73;;;1.30;99.90;;;;;;5079124;28;20204;-75
2023/12/02 01:09:47;;;;;;;18.25;12.77;;;1.30;99.90;;;;;;5083629;28;20214;-75
2023/12/02 01:12:32;;;;;;;15.85;13.55;;;1.30;99.90;;;;;;5085566;28;20709;-75
2023/12/02 01:15:18;;;;;;;17.48;12.63;;;1.30;99.90;;;;;;5076843;28;20280;-75
2023/12/02 01:18:04;;;;;;;15.40;11.10;;;1.30;99.90;;;;;;5086082;28;20675;-74
2023/12/02 01:20:49;;;;;;;17.85;12.43;;;1.20;99.90;;;;;;5080385;28;20205;-74
2023/12/02 01:23:36;;;;;;;15.45;13.52;;;1.30;99.90;;;;;;5089342;28;20679;-72
2023/12/02 01:26:23;;;;;;;19.63;13.40;;;1.30;99.90;;;;;;5087515;28;20558;-73
2023/12/02 01:29:08;;;;;;;18.45;11.75;;;1.20;99.90;;;;;;5086090;28;20593;-72
2023/12/02 01:31:54;;;;;;;14.90;11.90;;;1.20;99.90;;;;;;5080758;28;20203;-72
2023/12/02 01:34:40;;;;;;;14.10;12.10;;;1.10;99.90;;;;;;5075873;28;20227;-73
2023/12/02 01:37:26;;;;;;;14.20;11.40;;;1.10;99.90;;;;;;5071732;28;20593;-74
2023/12/02 01:40:14;;;;;;;15.10;11.60;;;1.20;99.90;;;;;;5076239;28;20629;-72
2023/12/02 01:42:59;;;;;;;13.50;11.32;;;1.20;99.90;;;;;;5087858;28;20791;-72
2023/12/02 01:45:45;;;;;;;15.80;11.85;;;1.30;99.90;;;;;;5089817;28;20200;-72
2023/12/02 01:48:33;;;;;;;14.13;11.77;;;1.20;99.90;;;;;;5085953;28;20199;-73
2023/12/02 01:51:19;;;;;;;13.85;11.98;;;1.20;99.90;;;;;;5084763;28;20274;-72
2023/12/02 01:54:04;;;;;;;14.25;12.13;;;1.20;99.90;;;;;;5090688;28;20230;-72
2023/12/02 01:56:51;;;;;;;14.82;11.88;;;1.20;99.90;;;;;;5089044;28;20228;-73
2023/12/02 01:59:42;;;;;;;14.10;12.30;;;1.20;99.90;;;;;;5088890;28;20237;-72
2023/12/02 02:02:28;;;;;;;17.15;13.50;;;1.10;99.90;;;;;;5084435;28;20200;-73
2023/12/02 02:05:14;;;;;;;14.65;12.18;;;1.20;99.90;;;;;;5094064;28;20227;-72
2023/12/02 02:07:59;;;;;;;14.88;12.35;;;1.20;99.90;;;;;;5082446;28;20334;-72
2023/12/02 02:10:45;;;;;;;14.20;12.73;;;1.20;99.90;;;;;;5091128;28;20203;-72
2023/12/02 02:13:32;;;;;;;17.15;13.60;;;1.30;99.90;;;;;;5087548;28;20262;-73
2023/12/02 02:16:17;;;;;;;16.85;14.02;;;1.30;99.90;;;;;;5087693;28;20258;-72
2023/12/02 02:19:03;;;;;;;14.38;11.60;;;1.30;99.90;;;;;;5082779;28;20306;-73
2023/12/02 02:21:53;;;;;;;16.85;12.60;;;1.20;99.90;;;;;;5090008;28;20216;-74
2023/12/02 02:24:40;;;;;;;14.57;12.60;;;1.20;99.90;;;;;;5080855;28;20285;-72
2023/12/02 02:27:25;;;;;;;15.85;11.07;;;1.30;99.90;;;;;;5089601;28;20202;-72
2023/12/02 02:30:11;;;;;;;13.32;10.43;;;1.40;99.90;;;;;;5087606;28;20338;-73
2023/12/02 02:32:57;;;;;;;13.10;10.73;;;1.40;99.90;;;;;;5080664;28;20567;-72
2023/12/02 02:35:43;;;;;;;14.43;12.40;;;1.40;99.90;;;;;;5085454;28;20219;-73
2023/12/02 02:38:30;;;;;;;15.73;12.68;;;1.30;99.90;;;;;;5081604;28;20376;-72
2023/12/02 02:41:16;;;;;;;14.32;11.60;;;1.30;99.90;;;;;;5084568;28;20206;-72
2023/12/02 02:44:01;;;;;;;14.45;12.95;;;1.30;99.90;;;;;;5088460;28;20225;-72
2023/12/02 02:46:47;;;;;;;17.00;11.85;;;1.30;99.90;;;;;;5083035;28;20223;-72
2023/12/02 02:49:33;;;;;;;17.33;14.60;;;1.30;99.90;;;;;;5082605;28;20385;-72
2023/12/02 02:52:18;;;;;;;14.82;11.07;;;1.30;99.90;;;;;;5092398;28;20211;-72
2023/12/02 02:55:06;;;;;;;19.42;12.70;;;1.30;99.90;;;;;;5091158;28;20239;-72
2023/12/02 02:57:52;;;;;;;14.93;12.73;;;1.30;99.90;;;;;;5088443;28;20568;-73
2023/12/02 03:00:37;;;;;;;18.23;12.93;;;1.30;99.90;;;;;;5084554;28;20559;-72
2023/12/02 03:03:23;;;;;;;15.23;11.93;;;1.30;99.90;;;;;;5074041;28;20199;-72
2023/12/02 03:06:09;;;;;;;14.68;12.63;;;1.40;99.90;;;;;;5088436;28;20192;-72
2023/12/02 03:08:55;;;;;;;14.38;11.48;;;1.30;99.90;;;;;;5088177;28;20274;-72
2023/12/02 03:11:42;;;;;;;16.77;13.35;;;1.40;99.90;;;;;;5090992;28;20689;-72
2023/12/02 03:14:27;;;;;;;16.77;11.82;;;1.40;99.90;;;;;;5080320;28;20721;-72
2023/12/02 03:17:13;;;;;;;13.70;11.68;;;1.30;99.90;;;;;;5087579;28;20718;-72
2023/12/02 03:19:59;;;;;;;17.52;11.85;;;1.30;99.90;;;;;;5071562;28;20207;-72
2023/12/02 03:22:45;;;;;;;13.27;11.70;;;1.20;99.90;;;;;;5090584;28;20212;-72
2023/12/02 03:25:31;;;;;;;12.48;10.40;;;1.20;99.90;;;;;;5084763;28;20228;-72
2023/12/02 03:28:19;;;;;;;13.68;11.70;;;1.20;99.90;;;;;;5084287;28;20196;-72
2023/12/02 03:31:05;;;;;;;13.73;10.50;;;1.20;99.90;;;;;;5082478;28;20199;-73
2023/12/02 03:33:50;;;;;;;14.00;11.57;;;1.20;99.90;;;;;;5089587;28;20238;-73
2023/12/02 03:36:36;;;;;;;13.95;12.18;;;1.10;99.90;;;;;;5073384;28;20278;-72
2023/12/02 03:39:23;;;;;;;16.80;12.73;;;1.20;99.90;;;;;;5074156;28;20211;-73
2023/12/02 03:42:08;;;;;;;15.85;12.20;;;1.10;99.90;;;;;;5083391;28;20207;-72
2023/12/02 03:44:56;;;;;;;13.10;10.60;;;1.20;99.90;;;;;;5082666;28;20224;-72
2023/12/02 03:47:41;;;;;;;15.18;11.70;;;1.20;99.90;;;;;;5082169;28;20220;-73
2023/12/02 03:50:27;;;;;;;16.05;12.73;;;1.30;99.90;;;;;;5080815;28;20204;-72
2023/12/02 03:53:13;;;;;;;12.45;9.60;;;1.20;99.90;;;;;;5083482;28;20342;-71
2023/12/02 03:55:58;;;;;;;15.57;12.73;;;1.20;99.90;;;;;;5088306;28;20315;-72
2023/12/02 03:58:44;;;;;;;17.98;11.60;;;1.20;99.90;;;;;;5085843;28;20203;-72
2023/12/02 04:01:31;;;;;;;13.55;11.40;;;1.20;99.90;;;;;;5082945;28;20749;-72
2023/12/02 04:04:16;;;;;;;13.68;11.57;;;1.20;99.90;;;;;;5090756;28;20725;-72
2023/12/02 04:07:02;;;;;;;15.05;11.57;;;1.20;99.90;;;;;;5080538;28;20200;-72
2023/12/02 04:09:48;;;;;;;14.90;11.05;;;1.20;99.90;;;;;;5087242;28;20199;-72
2023/12/02 04:12:34;;;;;;;12.30;10.73;;;1.20;99.90;;;;;;5084811;28;20565;-74
2023/12/02 04:15:21;;;;;;;13.25;11.25;;;1.20;99.90;;;;;;5091022;28;20698;-73
2023/12/02 04:18:07;;;;;;;13.70;10.82;;;1.10;99.90;;;;;;5090216;28;20199;-72
2023/12/02 04:20:53;;;;;;;13.05;11.05;;;1.10;99.90;;;;;;5091074;28;20325;-71
2023/12/02 04:23:39;;;;;;;13.77;10.77;;;1.00;99.90;;;;;;5090766;28;20297;-72
2023/12/02 04:26:25;;;;;;;15.45;11.65;;;1.00;99.90;;;;;;5091069;28;20196;-72
2023/12/02 04:29:10;;;;;;;12.85;10.75;;;1.00;99.90;;;;;;5081843;28;20215;-72
2023/12/02 04:31:56;;;;;;;14.30;11.80;;;1.00;99.90;;;;;;5078353;28;20242;-72
2023/12/02 04:34:43;;;;;;;14.30;10.65;;;0.90;99.90;;;;;;5067182;28;20231;-72
2023/12/02 04:37:28;;;;;;;12.25;9.88;;;0.90;99.90;;;;;;5064914;28;20298;-71
2023/12/02 04:40:15;;;;;;;11.93;10.55;;;0.90;99.90;;;;;;5083673;28;20223;-72
2023/12/02 04:43:00;;;;;;;14.98;11.82;;;0.90;99.90;;;;;;5085726;28;20576;-72
2023/12/02 04:45:46;;;;;;;11.93;10.50;;;0.90;99.90;;;;;;5076141;28;20574;-72
2023/12/02 04:48:32;;;;;;;12.43;10.43;;;0.80;99.90;;;;;;5069309;28;20755;-72
2023/12/02 04:51:19;;;;;;;13.88;11.70;;;0.90;99.90;;;;;;5064502;28;20250;-72
2023/12/02 04:54:04;;;;;;;12.75;10.50;;;0.90;99.90;;;;;;5063041;28;20309;-73
2023/12/02 04:56:50;;;;;;;12.35;9.60;;;0.90;99.90;;;;;;5067119;28;20273;-72
2023/12/02 04:59:36;;;;;;;13.60;11.68;;;0.90;99.90;;;;;;5071827;28;20212;-72
2023/12/02 05:02:22;;;;;;;12.10;9.43;;;1.00;99.90;;;;;;5062256;28;20306;-72
2023/12/02 05:05:08;;;;;;;14.73;11.23;;;0.90;99.90;;;;;;5052289;28;20236;-72
2023/12/02 05:07:55;;;;;;;16.60;13.02;;;0.90;99.90;;;;;;5060114;28;20251;-72
2023/12/02 05:10:40;;;;;;;16.90;11.50;;;0.80;99.90;;;;;;5056103;28;20805;-72
2023/12/02 05:13:26;;;;;;;13.57;11.10;;;0.90;99.90;;;;;;5061456;28;20199;-72
2023/12/02 05:16:12;;;;;;;15.80;12.23;;;0.80;99.90;;;;;;5075524;28;20199;-72
2023/12/02 05:18:58;;;;;;;12.93;9.70;;;0.90;99.90;;;;;;5084904;28;20212;-72
2023/12/02 05:21:43;;;;;;;14.70;11.88;;;1.00;99.90;;;;;;5075363;28;20281;-72
2023/12/02 05:24:30;;;;;;;12.85;9.52;;;0.90;99.90;;;;;;5064129;28;20594;-72
2023/12/02 05:27:16;;;;;;;11.95;9.50;;;0.90;99.90;;;;;;5086845;28;20244;-72
2023/12/02 05:30:03;;;;;;;14.23;11.30;;;0.90;99.90;;;;;;5072640;28;20335;-72
2023/12/02 05:32:51;;;;;;;16.75;11.52;;;0.90;99.90;;;;;;5080846;28;20628;-72
2023/12/02 05:35:37;;;;;;;12.35;9.75;;;0.90;99.90;;;;;;5069153;28;20819;-72
2023/12/02 05:38:22;;;;;;;13.98;10.65;;;0.90;99.90;;;;;;5068725;28;20744;-72
2023/12/02 05:41:10;;;;;;;14.95;10.90;;;0.90;99.90;;;;;;5071113;28;20744;-74
2023/12/02 05:43:55;;;;;;;12.82;10.35;;;0.90;99.90;;;;;;5075781;28;20224;-73
2023/12/02 05:46:41;;;;;;;13.93;10.02;;;0.90;99.90;;;;;;5075086;28;20299;-74
2023/12/02 05:49:27;;;;;;;14.75;10.60;;;1.00;99.90;;;;;;5062087;28;20308;-74
2023/12/02 05:52:12;;;;;;;13.75;10.68;;;1.00;99.90;;;;;;5071705;28;20671;-74
2023/12/02 05:54:58;;;;;;;14.05;11.20;;;0.90;99.90;;;;;;5072939;28;20235;-74
2023/12/02 05:57:45;;;;;;;14.98;11.77;;;0.90;99.90;;;;;;5064222;28;20294;-74
2023/12/02 06:00:31;;;;;;;14.85;11.07;;;0.80;99.90;;;;;;5062699;28;20204;-74
2023/12/02 06:03:16;;;;;;;13.95;11.20;;;0.80;99.90;;;;;;5071597;28;20191;-73
2023/12/02 06:06:02;;;;;;;12.50;9.50;;;0.80;99.90;;;;;;5076261;28;20282;-73
2023/12/02 06:08:48;;;;;;;12.88;9.60;;;0.80;99.90;;;;;;5074754;28;20289;-74
2023/12/02 06:11:33;;;;;;;12.43;10.00;;;0.90;99.90;;;;;;5064968;28;20316;-74
2023/12/02 06:14:20;;;;;;;12.07;9.85;;;0.90;99.90;;;;;;5071944;28;20222;-71
2023/12/02 06:17:07;;;;;;;12.75;9.98;;;0.90;99.90;;;;;;5085135;28;20673;-72
2023/12/02 06:19:52;;;;;;;11.45;10.25;;;0.80;99.90;;;;;;5078110;28;20219;-72
2023/12/02 06:22:38;;;;;;;12.80;9.93;;;0.80;99.90;;;;;;5067845;28;20216;-71
2023/12/02 06:25:24;;;;;;;13.02;9.50;;;0.80;99.90;;;;;;5060603;28;20243;-71
2023/12/02 06:28:09;;;;;;;12.55;9.82;;;0.80;99.90;;;;;;5073893;28;20334;-71
2023/12/02 06:30:57;;;;;;;11.93;9.50;;;0.80;99.90;;;;;;5076870;28;20687;-71
2023/12/02 06:33:43;;;;;;;12.73;9.80;;;0.80;99.90;;;;;;5071425;28;20726;-71
2023/12/02 06:36:28;;;;;;;12.05;8.32;;;0.80;99.90;;;;;;5072452;28;20203;-71
2023/12/02 06:39:14;;;;;;;14.30;8.80;;;0.80;99.90;;;;;;5060305;28;20679;-71
2023/12/02 06:42:00;;;;;;;11.70;9.85;;;0.80;99.90;;;;;;5068869;28;20686;-71
2023/12/02 06:44:46;;;;;;;12.25;9.60;;;0.80;99.90;;;;;;5075072;28;20242;-71
2023/12/02 06:47:33;;;;;;;14.27;9.55;;;0.80;99.90;;;;;;5069005;28;20200;-71
2023/12/02 06:50:19;;;;;;;11.63;9.50;;;0.70;99.90;;;;;;5071255;28;20211;-71
2023/12/02 06:53:04;;;;;;;11.07;9.10;;;0.80;99.90;;;;;;5062080;28;20697;-71
2023/12/02 06:55:50;;;;;;;11.40;8.63;;;0.80;99.90;;;;;;5067892;28;20224;-71
2023/12/02 06:58:38;;;;;;;11.82;9.20;;;0.80;99.90;;;;;;5076195;28;20348;-71
2023/12/02 07:01:26;;;;;;;12.27;9.50;;;0.80;99.90;;;;;;5063872;28;20255;-72
2023/12/02 07:04:13;;;;;;;10.82;8.32;;;0.90;99.90;;;;;;5065789;28;20224;-71
2023/12/02 07:06:59;;;;;;;9.90;8.40;;;0.90;99.90;;;;;;5080135;28;20199;-72
2023/12/02 07:09:45;;;;;;;11.80;8.88;;;0.90;99.90;;;;;;5067601;28;20702;-72
2023/12/02 07:12:30;;;;;;;9.68;8.23;;;0.90;99.90;;;;;;5075403;28;20219;-71
2023/12/02 07:15:16;;;;;;;11.65;8.35;;;0.90;99.90;;;;;;5064655;28;20236;-72
2023/12/02 07:18:02;;;;;;;9.30;6.95;;;0.90;99.90;;;;;;5067101;28;20714;-71
2023/12/02 07:20:49;;;;;;;9.05;7.22;;;0.90;99.90;;;;;;5068394;28;20216;-72
2023/12/02 07:23:34;;;;;;;7.97;7.10;;;0.80;99.90;;;;;;5073500;28;20725;-73
2023/12/02 07:26:20;;;;;;;8.60;6.70;;;0.90;99.90;;;;;;5062477;28;20205;-72
2023/12/02 07:29:05;;;;;;;9.60;7.10;;;0.90;99.90;;;;;;5074242;28;20204;-72
2023/12/02 07:31:51;;;;;;;8.40;7.43;;;0.80;99.90;;;;;;5072864;28;20235;-72
2023/12/02 07:34:37;;;;;;;8.63;7.55;;;0.90;99.90;;;;;;5058507;28;20601;-72
2023/12/02 07:37:24;;;;;;;9.05;7.20;;;0.90;99.90;;;;;;5074464;28;20215;-72
2023/12/02 07:40:11;;;;;;;7.43;6.50;;;0.90;99.90;;;;;;5080766;28;20669;-72
2023/12/02 07:42:56;;;;;;;7.65;6.85;;;0.70;99.90;;;;;;5069510;28;20204;-72
2023/12/02 07:45:42;;;;;;;9.25;7.13;;;0.70;99.90;;;;;;5075257;28;20223;-72
2023/12/02 07:48:27;;;;;;;7.68;6.20;;;0.80;99.90;;;;;;5067412;28;20694;-72
2023/12/02 07:51:13;;;;;;;9.48;7.15;;;0.90;99.90;;;;;;5085062;28;20781;-72
2023/12/02 07:54:01;;;;;;;9.45;6.60;;;1.00;99.90;;;;;;5082133;28;20747;-72
2023/12/02 07:56:46;;;;;;;9.02;7.25;;;0.90;99.90;;;;;;5071848;28;20225;-72
2023/12/02 07:59:32;;;;;;;8.35;6.45;;;1.00;99.90;;;;;;5068549;28;20330;-72
2023/12/02 08:02:17;;;;;;;7.45;6.40;;;1.00;99.90;;;;;;5074792;28;20211;-73
2023/12/02 08:05:03;;;;;;;10.25;6.70;;;1.00;99.90;;;;;;5063366;28;20234;-74
2023/12/02 08:07:51;;;;;;;7.72;5.82;;;1.00;99.90;;;;;;5067661;28;20202;-73
2023/12/02 08:10:38;;;;;;;7.32;5.55;;;1.00;99.90;;;;;;5070799;28;20207;-73
2023/12/02 08:13:24;;;;;;;7.57;5.70;;;0.90;99.90;;;;;;5068294;28;20687;-74
2023/12/02 08:16:10;;;;;;;9.95;6.60;;;1.00;99.90;;;;;;5068089;28;20728;-73
2023/12/02 08:18:55;;;;;;;7.38;5.53;;;1.00;99.90;;;;;;5069988;28;20656;-74
2023/12/02 08:21:41;;;;;;;9.02;6.35;;;1.00;99.90;;;;;;5064911;28;20324;-73
2023/12/02 08:24:27;;;;;;;9.88;7.72;;;1.00;99.90;;;;;;5061386;28;20240;-74
2023/12/02 08:27:14;;;;;;;8.30;6.95;;;1.00;99.90;;;;;;5072584;28;20195;-74
2023/12/02 08:29:59;;;;;;;16.00;10.60;;;1.00;99.90;;;;;;5069815;28;20589;-72
2023/12/02 08:32:45;;;;;;;8.07;6.30;;;1.00;99.90;;;;;;5077977;28;20202;-74
2023/12/02 08:35:31;;;;;;;11.05;7.68;;;1.00;99.90;;;;;;5071338;28;20220;-74
2023/12/02 08:38:16;;;;;;;19.38;12.45;;;0.90;99.90;;;;;;5073886;28;20586;-74
2023/12/02 08:41:02;;;;;;;26.58;19.35;;;0.90;99.90;;;;;;5076770;28;20203;-72
2023/12/02 08:43:49;;;;;;;12.57;9.40;;;0.80;99.90;;;;;;5068742;28;20797;-72
2023/12/02 08:46:35;;;;;;;9.00;6.10;;;0.80;99.90;;;;;;5076776;28;20206;-72
2023/12/02 08:49:21;;;;;;;6.90;6.20;;;0.90;99.90;;;;;;5078010;28;20360;-72
2023/12/02 08:52:06;;;;;;;9.30;6.20;;;1.00;99.90;;;;;;5076071;28;20253;-72
2023/12/02 08:54:52;;;;;;;7.50;5.95;;;0.90;99.90;;;;;;5067846;28;20224;-72
2023/12/02 08:57:38;;;;;;;6.47;5.80;;;0.90;99.90;;;;;;5065267;28;20346;-72
2023/12/02 09:00:25;;;;;;;7.32;5.82;;;1.00;99.90;;;;;;5081387;28;20228;-73
2023/12/02 09:03:11;;;;;;;7.97;6.45;;;1.00;99.90;;;;;;5069300;28;20204;-72
2023/12/02 09:05:57;;;;;;;7.65;6.80;;;1.00;99.90;;;;;;5079960;28;20285;-72
2023/12/02 09:08:42;;;;;;;7.18;6.18;;;1.00;99.90;;;;;;5079991;28;20318;-72
2023/12/02 09:11:28;;;;;;;14.35;10.00;;;1.00;99.90;;;;;;5063844;28;20207;-72
2023/12/02 09:14:14;;;;;;;9.60;6.50;;;1.00;99.90;;;;;;5077503;28;20617;-72
2023/12/02 09:17:01;;;;;;;6.13;5.50;;;1.00;99.90;;;;;;5067120;28;20244;-72
2023/12/02 09:19:53;;;;;;;5.15;4.65;;;1.00;99.90;;;;;;5066404;28;20706;-72
2023/12/02 09:22:47;;;;;;;6.55;5.45;;;1.10;99.90;;;;;;5072707;28;20209;-71
2023/12/02 09:25:36;;;;;;;8.15;4.95;;;1.00;99.90;;;;;;5069874;28;20224;-71
2023/12/02 09:28:26;;;;;;;6.07;5.15;;;1.00;99.90;;;;;;5090038;28;20202;-71
2023/12/02 09:31:12;;;;;;;5.03;4.55;;;1.00;99.90;;;;;;5089355;28;20237;-71
2023/12/02 09:34:02;;;;;;;6.30;5.07;;;1.10;99.90;;;;;;5079796;28;20236;-72
2023/12/02 09:36:48;;;;;;;6.47;4.75;;;1.10;99.90;;;;;;5076798;28;20261;-72
2023/12/02 09:40:17;;;;;;;7.75;5.75;;;1.10;99.90;;;;;;5059141;28;20303;-72
2023/12/02 09:43:25;;;;;;;5.93;4.95;;;1.20;99.90;;;;;;5082781;28;20211;-72
2023/12/02 09:46:27;;;;;;;5.78;5.15;;;1.10;99.90;;;;;;5075683;28;20283;-72
2023/12/02 09:49:30;;;;;;;7.00;5.60;;;1.10;99.90;;;;;;5070788;28;20192;-71
2023/12/02 09:52:47;;;;;;;6.60;5.03;;;1.10;99.90;;;;;;5059091;28;20243;-72
2023/12/02 09:55:38;;;;;;;7.85;6.93;;;1.20;99.90;;;;;;5071183;28;20266;-72
2023/12/02 09:58:26;;;;;;;6.78;5.40;;;1.20;99.90;;;;;;5079389;28;20257;-72
2023/12/02 10:01:18;;;;;;;7.18;6.30;;;1.20;99.90;;;;;;5075954;28;20202;-72
2023/12/02 10:04:16;;;;;;;7.10;5.55;;;1.20;99.90;;;;;;5087962;28;20235;-72
2023/12/02 10:07:11;;;;;;;5.82;4.97;;;1.20;99.90;;;;;;5067619;28;20204;-72
2023/12/02 10:10:08;;;;;;;7.15;6.43;;;1.20;99.90;;;;;;5072751;28;20343;-72
2023/12/02 10:13:10;;;;;;;7.43;6.43;;;1.10;99.90;;;;;;5071320;28;20208;-73
2023/12/02 10:16:00;;;;;;;10.82;8.73;;;1.20;99.90;;;;;;5071590;28;20204;-71
2023/12/02 10:18:52;;;;;;;9.57;7.88;;;1.10;99.90;;;;;;5077931;28;20591;-73
2023/12/02 10:21:42;;;;;;;9.45;7.72;;;1.10;99.90;;;;;;5063778;28;20659;-74
2023/12/02 10:24:35;;;;;;;10.07;8.50;;;1.10;99.90;;;;;;5070779;28;20362;-72
2023/12/02 10:27:21;;;;;;;8.55;7.40;;;1.10;99.90;;;;;;5079300;28;20211;-73
2023/12/02 10:30:10;;;;;;;15.43;11.65;;;1.10;99.90;;;;;;5079756;28;20679;-71
2023/12/02 10:33:07;;;;;;;14.35;9.73;;;1.20;99.90;;;;;;5071861;28;20204;-72
2023/12/02 10:35:58;;;;;;;9.75;8.20;;;1.10;99.90;;;;;;5075757;28;20702;-77
2023/12/02 10:38:58;;;;;;;8.60;7.70;;;1.10;99.90;;;;;;5072002;28;20306;-73
2023/12/02 10:41:51;;;;;;;7.40;6.50;;;1.10;99.90;;;;;;5066057;28;20219;-73
2023/12/02 10:44:38;;;;;;;7.38;6.65;;;1.00;99.90;;;;;;5062024;28;20261;-75
2023/12/02 10:47:25;;;;;;;8.63;7.65;;;0.90;99.90;;;;;;5078123;28;20694;-72
2023/12/02 10:50:12;;;;;;;8.88;7.40;;;0.90;99.90;;;;;;5084583;28;20303;-74
2023/12/02 10:53:01;;;;;;;11.38;9.25;;;0.90;99.90;;;;;;5066962;28;20271;-72
2023/12/02 10:55:53;;;;;;;8.77;7.18;;;0.90;99.90;;;;;;5074494;28;20618;-73
2023/12/02 10:58:42;;;;;;;7.85;7.05;;;0.90;99.90;;;;;;5077425;28;20603;-75
2023/12/02 11:01:37;;;;;;;8.88;6.80;;;1.00;99.90;;;;;;5070192;28;20199;-72
2023/12/02 11:04:27;;;;;;;17.38;7.57;;;1.00;99.90;;;;;;5076988;28;20359;-72
2023/12/02 11:07:16;;;;;;;9.05;7.35;;;1.00;99.90;;;;;;5061123;28;20208;-75
2023/12/02 11:10:04;;;;;;;6.63;5.95;;;0.90;99.90;;;;;;5080176;28;20290;-75
2023/12/02 11:12:53;;;;;;;10.35;7.13;;;0.90;99.90;;;;;;5082868;28;20207;-73
2023/12/02 11:16:02;;;;;;;11.10;8.38;;;0.80;99.90;;;;;;5069090;28;20215;-72
2023/12/02 11:19:02;;;;;;;8.50;7.70;;;0.80;99.90;;;;;;5073808;28;20583;-74
2023/12/02 11:22:03;;;;;;;9.60;7.90;;;0.70;99.90;;;;;;5066850;28;20205;-72
2023/12/02 11:25:05;;;;;;;10.15;8.00;;;0.70;99.90;;;;;;5072507;28;20235;-72
2023/12/02 11:28:04;;;;;;;8.70;7.35;;;0.80;99.90;;;;;;5077958;28;20331;-72
2023/12/02 11:31:17;;;;;;;6.10;5.35;;;0.80;99.90;;;;;;5062324;28;20237;-73
2023/12/02 11:34:15;;;;;;;9.10;6.90;;;0.80;99.90;;;;;;5069356;28;20240;-73
2023/12/02 11:37:12;;;;;;;7.60;6.50;;;0.80;99.90;;;;;;5076301;28;20297;-72
2023/12/02 11:40:12;;;;;;;14.93;8.00;;;0.70;99.90;;;;;;5075013;28;20232;-73
2023/12/02 11:43:08;;;;;;;9.07;6.85;;;0.70;99.90;;;;;;5071128;28;20207;-72
2023/12/02 11:45:57;;;;;;;9.23;6.53;;;0.70;99.90;;;;;;5072620;28;20200;-72
2023/12/02 11:48:58;;;;;;;7.07;5.65;;;0.70;99.90;;;;;;5069639;28;20246;-72
2023/12/02 11:51:55;;;;;;;7.95;5.20;;;0.70;99.90;;;;;;5076579;28;20223;-75
2023/12/02 11:55:05;;;;;;;7.30;5.20;;;0.80;99.90;;;;;;5072914;28;20247;-73
2023/12/02 11:58:12;;;;;;;8.65;6.53;;;0.80;99.90;;;;;;5078996;28;20252;-72
2023/12/02 12:01:09;;;;;;;6.55;5.85;;;0.80;99.90;;;;;;5074276;28;20203;-72
2023/12/02 12:04:12;;;;;;;13.82;8.52;;;0.80;99.90;;;;;;5075105;28;20752;-72
2023/12/02 12:07:07;;;;;;;7.40;6.03;;;0.80;99.90;;;;;;5078088;28;20574;-71
2023/12/02 12:10:03;;;;;;;7.63;6.82;;;0.80;99.90;;;;;;5091520;28;20199;-73
2023/12/02 12:12:54;;;;;;;7.40;6.20;;;0.70;99.90;;;;;;5071236;28;20204;-73
2023/12/02 12:15:41;;;;;;;7.60;6.22;;;0.70;99.90;;;;;;5088427;28;20200;-72
2023/12/02 12:18:27;;;;;;;7.97;6.75;;;0.70;99.90;;;;;;5074630;28;20215;-72
2023/12/02 12:21:14;;;;;;;7.68;6.80;;;0.60;99.90;;;;;;5076083;28;20246;-71
2023/12/02 12:23:59;;;;;;;7.45;6.07;;;0.60;99.90;;;;;;5068135;28;20278;-72
2023/12/02 12:26:45;;;;;;;7.00;6.30;;;0.60;99.90;;;;;;5083608;28;20225;-71
2023/12/02 12:29:30;;;;;;;9.30;6.00;;;0.60;99.90;;;;;;5072155;28;20211;-71
2023/12/02 12:32:16;;;;;;;7.75;6.70;;;0.70;99.90;;;;;;5063897;28;20226;-72
2023/12/02 12:35:10;;;;;;;6.75;6.03;;;0.70;99.90;;;;;;5071444;28;20725;-73
2023/12/02 12:37:57;;;;;;;9.50;7.70;;;0.70;99.90;;;;;;5078664;28;20273;-73
2023/12/02 12:40:43;;;;;;;7.55;6.40;;;0.70;99.90;;;;;;5078725;28;20209;-72
2023/12/02 12:43:29;;;;;;;6.75;6.05;;;0.80;99.90;;;;;;5073880;28;20558;-71
2023/12/02 12:46:16;;;;;;;7.25;6.20;;;0.80;99.90;;;;;;5075346;28;20285;-72
2023/12/02 12:49:04;;;;;;;10.68;6.75;;;0.70;99.90;;;;;;5082366;28;20720;-71
2023/12/02 12:51:56;;;;;;;6.97;6.28;;;0.70;99.90;;;;;;5087497;28;20196;-72
2023/12/02 12:54:51;;;;;;;9.20;5.72;;;0.70;99.90;;;;;;5082468;28;20225;-72
2023/12/02 12:57:47;;;;;;;6.85;6.15;;;0.70;99.90;;;;;;5069747;28;20213;-72
2023/12/02 13:00:36;;;;;;;7.55;6.15;;;0.80;99.90;;;;;;5073056;28;20226;-73
2023/12/02 13:03:37;;;;;;;6.10;5.50;;;0.70;99.90;;;;;;5067256;28;20207;-74
2023/12/02 13:06:35;;;;;;;8.27;7.25;;;0.80;99.90;;;;;;5067317;28;20265;-73
2023/12/02 13:09:27;;;;;;;9.18;6.45;;;0.80;99.90;;;;;;5083613;28;20211;-76
2023/12/02 13:12:21;;;;;;;11.07;8.45;;;0.80;99.90;;;;;;5083755;28;20285;-75
2023/12/02 13:15:11;;;;;;;7.63;6.05;;;0.80;99.90;;;;;;5070222;28;20219;-73
2023/12/02 13:17:58;;;;;;;7.50;5.65;;;0.70;99.90;;;;;;5070034;28;20699;-73
2023/12/02 13:20:44;;;;;;;7.95;7.15;;;0.70;99.90;;;;;;5075087;28;20571;-73
2023/12/02 13:23:31;;;;;;;6.70;5.50;;;0.70;99.90;;;;;;5104127;22;20252;-74
2023/12/02 13:26:23;;;;;;;7.28;6.10;;;0.70;99.90;;;;;;5026067;28;20297;-73
2023/12/02 13:29:11;;;;;;;6.97;6.00;;;0.80;99.90;;;;;;5026717;28;20197;-73
2023/12/02 13:31:57;;;;;;;6.50;5.50;;;0.80;99.90;;;;;;5032527;28;20198;-73
2023/12/02 13:34:49;;;;;;;6.93;5.35;;;0.80;99.90;;;;;;5034063;28;20751;-74
2023/12/02 13:37:41;;;;;;;6.43;5.68;;;0.60;99.90;;;;;;5028729;28;20253;-74
2023/12/02 13:40:34;;;;;;;7.40;5.95;;;0.50;99.90;;;;;;5028253;28;20703;-73
2023/12/02 13:43:30;;;;;;;6.50;5.68;;;0.40;99.90;;;;;;5030204;28;20702;-74
2023/12/02 13:46:22;;;;;;;5.90;5.30;;;0.50;99.90;;;;;;5031676;28;20202;-73
2023/12/02 13:49:16;;;;;;;6.45;5.80;;;0.50;99.90;;;;;;5033082;28;20297;-73
2023/12/02 13:52:09;;;;;;;6.25;5.65;;;0.60;99.90;;;;;;5029375;28;20281;-73
2023/12/02 13:55:22;;;;;;;7.18;5.97;;;0.70;99.90;;;;;;5031805;28;20723;-73
2023/12/02 13:58:17;;;;;;;6.90;5.45;;;0.60;99.90;;;;;;5030356;28;20345;-73
2023/12/02 14:01:08;;;;;;;6.47;5.18;;;0.70;99.90;;;;;;5032847;28;20337;-74
2023/12/02 14:04:14;;;;;;;8.07;5.72;;;0.70;99.90;;;;;;5032438;28;20355;-74
2023/12/02 14:07:06;;;;;;;9.32;7.07;;;0.70;99.90;;;;;;5031476;28;20601;-73
2023/12/02 14:09:55;;;;;;;8.05;6.60;;;0.70;99.90;;;;;;5030865;28;20333;-74
2023/12/02 14:13:03;;;;;;;7.45;6.10;;;0.60;99.90;;;;;;5033516;28;20248;-74
2023/12/02 14:15:56;;;;;;;6.38;5.68;;;0.70;99.90;;;;;;5030306;28;20710;-73
2023/12/02 14:19:04;;;;;;;7.43;5.95;;;0.60;99.90;;;;;;5031389;28;20214;-73
2023/12/02 14:22:22;;;;;;;13.10;5.95;;;0.60;99.90;;;;;;5027727;28;20297;-73
2023/12/02 14:25:40;;;;;;;7.68;5.65;;;0.60;99.90;;;;;;5000869;28;20740;-74
2023/12/02 14:28:42;;;;;;;6.00;5.13;;;0.60;99.90;;;;;;5029885;28;20205;-74
2023/12/02 14:31:47;;;;;;;7.20;5.20;;;0.70;99.90;;;;;;5029959;28;20201;-74
2023/12/02 14:35:09;;;;;;;6.18;5.18;;;0.60;99.90;;;;;;5029702;28;20317;-74
2023/12/02 14:38:26;;;;;;;7.38;6.18;;;0.70;99.90;;;;;;5031159;28;20301;-73
2023/12/02 14:41:25;;;;;;;6.97;5.72;;;0.70;99.90;;;;;;5025564;28;20662;-74